createdAt,value
2022-11-17T00:00:02.597Z,94461
2022-11-17T00:01:02.602Z,94452
2022-11-17T00:02:02.704Z,94457
2022-11-17T00:03:02.612Z,94463
2022-11-17T00:04:02.608Z,94461
2022-11-17T00:05:02.655Z,94453
2022-11-17T00:06:02.618Z,94449
2022-11-17T00:07:02.687Z,94454
2022-11-17T00:08:02.611Z,94454
2022-11-17T00:09:02.598Z,94454
2022-11-17T00:10:02.669Z,94456
2022-11-17T00:11:02.635Z,94452
2022-11-17T00:12:02.667Z,94448
2022-11-17T00:13:02.612Z,94448
2022-11-17T00:14:02.625Z,94456
2022-11-17T00:16:02.749Z,94461
2022-11-17T00:17:02.653Z,94467
2022-11-17T00:18:02.657Z,94466
2022-11-17T00:19:02.630Z,94459
2022-11-17T00:20:02.689Z,94460
2022-11-17T00:21:02.802Z,94460
2022-11-17T00:22:02.666Z,94466
2022-11-17T00:23:02.641Z,94464
2022-11-17T00:24:02.646Z,94463
2022-11-17T00:25:02.687Z,94462
2022-11-17T00:26:02.732Z,94462
2022-11-17T00:27:02.691Z,94463
2022-11-17T00:28:02.650Z,94465
2022-11-17T00:29:02.671Z,94469
2022-11-17T00:30:02.721Z,94470
2022-11-17T00:31:02.692Z,94470
2022-11-17T00:33:02.683Z,94474
2022-11-17T00:34:02.686Z,94473
2022-11-17T00:35:02.724Z,94475
2022-11-17T00:36:02.693Z,94474
2022-11-17T00:37:02.688Z,94470
2022-11-17T00:38:02.680Z,94473
2022-11-17T00:40:02.752Z,94470
2022-11-17T00:41:02.689Z,94470
2022-11-17T00:42:02.727Z,94460
2022-11-17T00:43:02.774Z,94456
2022-11-17T00:44:02.785Z,94456
2022-11-17T00:45:02.731Z,94453
2022-11-17T00:46:02.697Z,94453
2022-11-17T00:47:02.720Z,94457
2022-11-17T00:48:02.768Z,94463
2022-11-17T00:49:02.716Z,94454
2022-11-17T00:50:02.742Z,94455
2022-11-17T00:51:02.778Z,94456
2022-11-17T00:52:02.725Z,94456
2022-11-17T00:53:02.723Z,94452
2022-11-17T00:54:02.736Z,94454
2022-11-17T00:55:02.820Z,94454
2022-11-17T00:56:02.746Z,94454
2022-11-17T00:57:02.735Z,94451
2022-11-17T00:59:02.759Z,94454
2022-11-17T01:00:02.778Z,94457
2022-11-17T01:01:02.758Z,94459
2022-11-17T01:03:02.786Z,94463
2022-11-17T01:04:03.341Z,94459
2022-11-17T01:05:02.764Z,94459
2022-11-17T01:07:02.807Z,94458
2022-11-17T01:08:02.823Z,94450
2022-11-17T01:09:02.807Z,94444
2022-11-17T01:11:02.804Z,94441
2022-11-17T01:12:02.773Z,94437
2022-11-17T01:13:02.787Z,94436
2022-11-17T01:14:02.823Z,94429
2022-11-17T01:16:02.822Z,94417
2022-11-17T01:17:02.811Z,94421
2022-11-17T01:18:02.810Z,94414
2022-11-17T01:19:02.850Z,94400
2022-11-17T01:20:02.803Z,94399
2022-11-17T01:21:02.842Z,94390
2022-11-17T01:22:02.833Z,94394
2022-11-17T01:23:02.835Z,94391
2022-11-17T01:24:02.846Z,94390
2022-11-17T01:25:02.807Z,94390
2022-11-17T01:26:02.845Z,94406
2022-11-17T01:27:02.812Z,94401
2022-11-17T01:28:02.824Z,94398
2022-11-17T01:29:02.871Z,94388
2022-11-17T01:30:02.820Z,94382
2022-11-17T01:31:02.812Z,94382
2022-11-17T01:32:02.858Z,94384
2022-11-17T01:33:02.833Z,94384
2022-11-17T01:34:02.863Z,94378
2022-11-17T01:35:02.852Z,94376
2022-11-17T01:36:02.814Z,94376
2022-11-17T01:37:02.851Z,94371
2022-11-17T01:38:02.818Z,94371
2022-11-17T01:39:02.891Z,94369
2022-11-17T01:41:02.854Z,94368
2022-11-17T01:42:02.862Z,94371
2022-11-17T01:43:02.838Z,94373
2022-11-17T01:44:02.917Z,94374
2022-11-17T01:45:02.856Z,94372
2022-11-17T01:46:02.872Z,94374
2022-11-17T01:47:02.893Z,94369
2022-11-17T01:48:02.867Z,94363
2022-11-17T01:49:02.914Z,94351
2022-11-17T01:50:02.883Z,94351
2022-11-17T01:52:02.919Z,94335
2022-11-17T01:53:02.890Z,94329
2022-11-17T01:54:02.883Z,94325
2022-11-17T01:56:02.875Z,94327
2022-11-17T01:57:02.911Z,94332
2022-11-17T01:58:02.898Z,94332
2022-11-17T01:59:02.898Z,94334
2022-11-17T02:00:02.922Z,94331
2022-11-17T02:01:02.929Z,94328
2022-11-17T02:03:02.904Z,94323
2022-11-17T02:04:02.911Z,94323
2022-11-17T02:05:02.934Z,94310
2022-11-17T02:06:02.923Z,94307
2022-11-17T02:07:02.990Z,94306
2022-11-17T02:08:02.908Z,94306
2022-11-17T02:09:02.927Z,94296
2022-11-17T02:10:02.954Z,94286
2022-11-17T02:11:02.903Z,94281
2022-11-17T02:12:02.942Z,94275
2022-11-17T02:14:02.928Z,94259
2022-11-17T02:15:02.971Z,94256
2022-11-17T02:16:02.924Z,94256
2022-11-17T02:18:02.994Z,94254
2022-11-17T02:19:02.923Z,94258
2022-11-17T02:20:03.000Z,94260
2022-11-17T02:21:02.945Z,94260
2022-11-17T02:22:02.963Z,94262
2022-11-17T02:23:02.999Z,94266
2022-11-17T02:24:02.971Z,94271
2022-11-17T02:25:02.960Z,94281
2022-11-17T02:27:02.961Z,94289
2022-11-17T02:28:03.085Z,94287
2022-11-17T02:29:02.966Z,94281
2022-11-17T02:30:02.970Z,94279
2022-11-17T02:31:03.004Z,94276
2022-11-17T02:32:02.979Z,94275
2022-11-17T02:33:03.137Z,94282
2022-11-17T02:34:02.967Z,94282
2022-11-17T02:35:02.986Z,94296
2022-11-17T02:36:03.018Z,94307
2022-11-17T02:37:03.011Z,94314
2022-11-17T02:38:02.980Z,94314
2022-11-17T02:39:02.988Z,94326
2022-11-17T02:40:03.018Z,94359
2022-11-17T02:41:03.046Z,94372
2022-11-17T02:44:03.010Z,94363
2022-11-17T02:45:03.042Z,94349
2022-11-17T02:46:03.037Z,94340
2022-11-17T02:47:03.019Z,94345
2022-11-17T02:48:03.022Z,94354
2022-11-17T02:49:03.041Z,94365
2022-11-17T02:50:03.007Z,94373
2022-11-17T02:51:03.051Z,94374
2022-11-17T02:53:03.046Z,94358
2022-11-17T02:54:03.079Z,94358
2022-11-17T02:55:03.051Z,94343
2022-11-17T02:56:03.064Z,94352
2022-11-17T02:57:03.040Z,94355
2022-11-17T02:59:03.101Z,94366
2022-11-17T03:00:03.056Z,94361
2022-11-17T03:01:03.087Z,94355
2022-11-17T03:02:03.164Z,94355
2022-11-17T03:03:03.097Z,94339
2022-11-17T03:04:03.082Z,94329
2022-11-17T03:05:03.063Z,94324
2022-11-17T03:06:03.074Z,94326
2022-11-17T03:07:03.119Z,94325
2022-11-17T03:08:03.086Z,94325
2022-11-17T03:09:03.097Z,94324
2022-11-17T03:10:03.078Z,94319
2022-11-17T03:11:03.081Z,94320
2022-11-17T03:12:03.090Z,94319
2022-11-17T03:13:03.060Z,94319
2022-11-17T03:14:03.111Z,94311
2022-11-17T03:15:03.091Z,94305
2022-11-17T03:16:03.074Z,94305
2022-11-17T03:17:03.069Z,94304
2022-11-17T03:18:03.074Z,94304
2022-11-17T03:19:03.123Z,94304
2022-11-17T03:20:03.073Z,94295
2022-11-17T03:21:03.096Z,94288
2022-11-17T03:22:03.130Z,94290
2022-11-17T03:23:03.104Z,94294
2022-11-17T03:24:03.140Z,94298
2022-11-17T03:25:03.109Z,94299
2022-11-17T03:26:03.097Z,94305
2022-11-17T03:27:03.155Z,94307
2022-11-17T03:28:03.094Z,94311
2022-11-17T03:29:03.148Z,94311
2022-11-17T03:30:03.096Z,94308
2022-11-17T03:31:03.108Z,94305
2022-11-17T03:32:03.149Z,94302
2022-11-17T03:33:03.189Z,94304
2022-11-17T03:34:03.137Z,94308
2022-11-17T03:35:03.128Z,94311
2022-11-17T03:36:03.129Z,94317
2022-11-17T03:37:03.199Z,94323
2022-11-17T03:38:03.158Z,94330
2022-11-17T03:39:03.138Z,94332
2022-11-17T03:40:03.150Z,94338
2022-11-17T03:41:03.174Z,94337
2022-11-17T03:42:03.162Z,94342
2022-11-17T03:44:03.175Z,94345
2022-11-17T03:45:03.198Z,94336
2022-11-17T03:46:03.163Z,94325
2022-11-17T03:47:03.184Z,94317
2022-11-17T03:48:03.179Z,94315
2022-11-17T03:49:03.169Z,94312
2022-11-17T03:50:03.217Z,94302
2022-11-17T03:51:03.152Z,94302
2022-11-17T03:52:03.164Z,94300
2022-11-17T03:53:03.225Z,94302
2022-11-17T03:54:03.205Z,94303
2022-11-17T03:55:03.222Z,94304
2022-11-17T03:56:03.178Z,94306
2022-11-17T03:57:03.161Z,94306
2022-11-17T03:58:03.213Z,94297
2022-11-17T03:59:03.206Z,94296
2022-11-17T04:00:03.218Z,94297
2022-11-17T04:01:03.221Z,94294
2022-11-17T04:02:03.243Z,94288
2022-11-17T04:03:03.205Z,94294
2022-11-17T04:04:03.201Z,94296
2022-11-17T04:05:03.201Z,94291
2022-11-17T04:06:03.184Z,94291
2022-11-17T04:07:03.349Z,94289
2022-11-17T04:08:03.320Z,94286
2022-11-17T04:09:03.227Z,94292
2022-11-17T04:10:03.222Z,94297
2022-11-17T04:11:03.236Z,94300
2022-11-17T04:12:03.236Z,94303
2022-11-17T04:13:03.259Z,94305
2022-11-17T04:14:03.224Z,94299
2022-11-17T04:15:03.252Z,94292
2022-11-17T04:16:03.279Z,94298
2022-11-17T04:17:03.224Z,94298
2022-11-17T04:18:03.245Z,94290
2022-11-17T04:19:03.248Z,94283
2022-11-17T04:20:03.246Z,94283
2022-11-17T04:21:03.283Z,94284
2022-11-17T04:22:03.250Z,94280
2022-11-17T04:23:03.239Z,94277
2022-11-17T04:24:03.289Z,94285
2022-11-17T04:25:03.247Z,94285
2022-11-17T04:26:03.301Z,94291
2022-11-17T04:27:03.240Z,94291
2022-11-17T04:28:03.258Z,94295
2022-11-17T04:29:03.291Z,94292
2022-11-17T04:30:03.264Z,94287
2022-11-17T04:31:03.297Z,94281
2022-11-17T04:32:03.267Z,94279
2022-11-17T04:33:03.282Z,94279
2022-11-17T04:34:03.307Z,94285
2022-11-17T04:35:03.267Z,94276
2022-11-17T04:36:03.254Z,94276
2022-11-17T04:37:08.180Z,94286
2022-11-17T04:38:03.322Z,94296
2022-11-17T04:39:03.346Z,94298
2022-11-17T04:40:03.308Z,94302
2022-11-17T04:41:03.325Z,94293
2022-11-17T04:42:03.347Z,94290
2022-11-17T04:43:03.283Z,94290
2022-11-17T04:44:03.329Z,94282
2022-11-17T04:45:03.315Z,94274
2022-11-17T04:46:03.313Z,94273
2022-11-17T04:47:03.314Z,94273
2022-11-17T04:48:03.316Z,94272
2022-11-17T04:49:03.337Z,94279
2022-11-17T04:50:03.295Z,94275
2022-11-17T04:51:03.329Z,94277
2022-11-17T04:52:03.362Z,94273
2022-11-17T04:53:03.319Z,94275
2022-11-17T04:54:03.321Z,94273
2022-11-17T04:56:03.319Z,94276
2022-11-17T04:57:03.348Z,94286
2022-11-17T04:58:03.402Z,94288
2022-11-17T05:00:03.474Z,94293
2022-11-17T05:01:03.338Z,94292
2022-11-17T05:02:06.096Z,94291
2022-11-17T05:03:03.345Z,94288
2022-11-17T05:04:03.354Z,94290
2022-11-17T05:05:03.386Z,94284
2022-11-17T05:06:03.368Z,94288
2022-11-17T05:07:03.460Z,94282
2022-11-17T05:09:03.351Z,94289
2022-11-17T05:10:03.387Z,94295
2022-11-17T05:11:03.413Z,94290
2022-11-17T05:12:03.432Z,94291
2022-11-17T05:13:03.356Z,94291
2022-11-17T05:14:03.965Z,94292
2022-11-17T05:15:03.409Z,94287
2022-11-17T05:16:03.379Z,94283
2022-11-17T05:17:08.655Z,94284
2022-11-17T05:18:03.386Z,94285
2022-11-17T05:19:03.381Z,94285
2022-11-17T05:21:03.401Z,94287
2022-11-17T05:22:03.419Z,94288
2022-11-17T05:23:06.782Z,94292
2022-11-17T05:26:03.392Z,94295
2022-11-17T05:27:03.405Z,94297
2022-11-17T05:29:03.412Z,94291
2022-11-17T05:30:03.443Z,94295
2022-11-17T05:31:03.450Z,94285
2022-11-17T05:33:03.444Z,94290
2022-11-17T05:34:03.445Z,94294
2022-11-17T05:35:03.441Z,94291
2022-11-17T05:36:03.479Z,94291
2022-11-17T05:37:03.411Z,94291
2022-11-17T05:38:03.466Z,94294
2022-11-17T05:39:03.464Z,94300
2022-11-17T05:40:03.449Z,94297
2022-11-17T05:41:03.481Z,94297
2022-11-17T05:42:03.447Z,94301
2022-11-17T05:43:03.467Z,94302
2022-11-17T05:44:03.466Z,94304
2022-11-17T05:45:03.444Z,94307
2022-11-17T05:47:03.437Z,94310
2022-11-17T05:48:03.477Z,94313
2022-11-17T05:49:03.475Z,94319
2022-11-17T05:50:03.481Z,94321
2022-11-17T05:51:03.501Z,94317
2022-11-17T05:52:03.466Z,94317
2022-11-17T05:53:03.474Z,94316
2022-11-17T05:54:03.502Z,94318
2022-11-17T05:55:03.461Z,94318
2022-11-17T05:56:03.513Z,94327
2022-11-17T05:57:03.466Z,94327
2022-11-17T05:58:03.481Z,94333
2022-11-17T05:59:03.517Z,94335
2022-11-17T06:00:03.495Z,94341
2022-11-17T06:01:03.511Z,94342
2022-11-17T06:03:03.506Z,94338
2022-11-17T06:04:03.718Z,94334
2022-11-17T06:06:03.525Z,94332
2022-11-17T06:07:03.551Z,94332
2022-11-17T06:08:03.499Z,94335
2022-11-17T06:09:03.522Z,94343
2022-11-17T06:10:03.547Z,94336
2022-11-17T06:11:03.520Z,94329
2022-11-17T06:12:06.140Z,94332
2022-11-17T06:14:03.532Z,94326
2022-11-17T06:15:03.530Z,94322
2022-11-17T06:16:03.521Z,94322
2022-11-17T06:17:03.584Z,94313
2022-11-17T06:18:03.516Z,94311
2022-11-17T06:19:03.543Z,94306
2022-11-17T06:20:03.519Z,94306
2022-11-17T06:21:03.549Z,94296
2022-11-17T06:22:12.767Z,94295
2022-11-17T06:23:03.548Z,94299
2022-11-17T06:24:03.547Z,94299
2022-11-17T06:25:03.588Z,94296
2022-11-17T06:26:03.544Z,94296
2022-11-17T06:27:03.582Z,94294
2022-11-17T06:28:03.565Z,94295
2022-11-17T06:29:03.547Z,94295
2022-11-17T06:30:03.573Z,94290
2022-11-17T06:31:03.558Z,94287
2022-11-17T06:32:03.540Z,94292
2022-11-17T06:34:03.615Z,94292
2022-11-17T06:35:03.576Z,94292
2022-11-17T06:36:03.613Z,94293
2022-11-17T06:37:03.592Z,94290
2022-11-17T06:38:03.592Z,94290
2022-11-17T06:40:03.588Z,94292
2022-11-17T06:41:07.396Z,94292
2022-11-17T06:42:03.611Z,94292
2022-11-17T06:43:03.631Z,94287
2022-11-17T06:44:03.605Z,94287
2022-11-17T06:45:03.628Z,94283
2022-11-17T06:46:03.611Z,94285
2022-11-17T06:47:03.619Z,94291
2022-11-17T06:48:03.612Z,94295
2022-11-17T06:49:03.630Z,94291
2022-11-17T06:50:03.597Z,94292
2022-11-17T06:51:03.604Z,94290
2022-11-17T06:52:03.642Z,94288
2022-11-17T06:53:03.663Z,94294
2022-11-17T06:54:03.679Z,94291
2022-11-17T06:55:03.667Z,94293
2022-11-17T06:56:03.673Z,94300
2022-11-17T06:57:03.674Z,94300
2022-11-17T06:58:03.640Z,94304
2022-11-17T06:59:03.657Z,94303
2022-11-17T07:00:03.776Z,94305
2022-11-17T07:01:03.701Z,94305
2022-11-17T07:02:03.682Z,94307
2022-11-17T07:04:03.697Z,94304
2022-11-17T07:05:03.699Z,94301
2022-11-17T07:06:03.756Z,94305
2022-11-17T07:07:03.688Z,94305
2022-11-17T07:08:03.704Z,94306
2022-11-17T07:09:03.683Z,94306
2022-11-17T07:11:03.694Z,94306
2022-11-17T07:12:03.719Z,94306
2022-11-17T07:13:03.716Z,94300
2022-11-17T07:14:03.700Z,94296
2022-11-17T07:15:03.728Z,94290
2022-11-17T07:16:03.721Z,94293
2022-11-17T07:17:03.709Z,94294
2022-11-17T07:18:03.732Z,94291
2022-11-17T07:19:03.875Z,94297
2022-11-17T07:20:03.752Z,94290
2022-11-17T07:21:03.734Z,94286
2022-11-17T07:22:03.774Z,94277
2022-11-17T07:25:03.795Z,94293
2022-11-17T07:26:03.721Z,94291
2022-11-17T07:28:03.825Z,94286
2022-11-17T07:29:03.768Z,94293
2022-11-17T07:30:03.822Z,94308
2022-11-17T07:31:03.796Z,94297
2022-11-17T07:32:03.767Z,94293
2022-11-17T07:33:03.816Z,94282
2022-11-17T07:34:03.800Z,94290
2022-11-17T07:35:03.788Z,94303
2022-11-17T07:36:03.769Z,94300
2022-11-17T07:37:03.779Z,94308
2022-11-17T07:38:03.840Z,94319
2022-11-17T07:39:03.776Z,94315
2022-11-17T07:40:03.815Z,94320
2022-11-17T07:41:03.807Z,94329
2022-11-17T07:42:03.792Z,94328
2022-11-17T07:43:03.835Z,94333
2022-11-17T07:44:03.809Z,94335
2022-11-17T07:46:03.849Z,94335
2022-11-17T07:47:03.809Z,94335
2022-11-17T07:48:03.833Z,94338
2022-11-17T07:49:03.826Z,94334
2022-11-17T07:50:03.784Z,94335
2022-11-17T07:51:03.785Z,94335
2022-11-17T07:52:03.815Z,94343
2022-11-17T07:53:03.810Z,94330
2022-11-17T07:54:03.814Z,94330
2022-11-17T07:55:03.822Z,94319
2022-11-17T07:56:03.829Z,94326
2022-11-17T07:57:03.798Z,94326
2022-11-17T07:58:03.868Z,94323
2022-11-17T07:59:03.804Z,94328
2022-11-17T08:00:03.839Z,94334
2022-11-17T08:01:03.927Z,94320
2022-11-17T08:02:03.851Z,94316
2022-11-17T08:03:03.899Z,94317
2022-11-17T08:04:03.912Z,94317
2022-11-17T08:05:03.869Z,94324
2022-11-17T08:06:03.872Z,94320
2022-11-17T08:07:03.901Z,94318
2022-11-17T08:08:03.847Z,94318
2022-11-17T08:09:03.869Z,94318
2022-11-17T08:10:03.821Z,94309
2022-11-17T08:11:03.851Z,94306
2022-11-17T08:12:03.840Z,94315
2022-11-17T08:13:03.878Z,94309
2022-11-17T08:14:03.841Z,94319
2022-11-17T08:15:03.848Z,94314
2022-11-17T08:16:03.885Z,94316
2022-11-17T08:17:03.871Z,94321
2022-11-17T08:18:03.888Z,94309
2022-11-17T08:19:03.884Z,94309
2022-11-17T08:20:03.867Z,94311
2022-11-17T08:21:03.886Z,94311
2022-11-17T08:22:03.859Z,94311
2022-11-17T08:23:03.863Z,94306
2022-11-17T08:24:03.899Z,94306
2022-11-17T08:25:03.871Z,94309
2022-11-17T08:26:03.920Z,94322
2022-11-17T08:27:03.908Z,94323
2022-11-17T08:28:03.870Z,94320
2022-11-17T08:29:03.933Z,94318
2022-11-17T08:30:03.915Z,94310
2022-11-17T08:31:03.956Z,94316
2022-11-17T08:32:03.877Z,94315
2022-11-17T08:33:03.886Z,94323
2022-11-17T08:34:03.940Z,94327
2022-11-17T08:35:03.927Z,94320
2022-11-17T08:36:03.955Z,94322
2022-11-17T08:37:03.889Z,94322
2022-11-17T08:38:03.901Z,94323
2022-11-17T08:39:03.966Z,94333
2022-11-17T08:40:03.936Z,94329
2022-11-17T08:41:03.922Z,94342
2022-11-17T08:42:03.892Z,94342
2022-11-17T08:43:03.958Z,94340
2022-11-17T08:44:03.955Z,94356
2022-11-17T08:45:03.921Z,94354
2022-11-17T08:46:03.964Z,94357
2022-11-17T08:47:03.924Z,94360
2022-11-17T08:48:03.932Z,94360
2022-11-17T08:49:03.951Z,94375
2022-11-17T08:50:03.965Z,94373
2022-11-17T08:51:03.958Z,94369
2022-11-17T08:52:04.012Z,94359
2022-11-17T08:53:03.969Z,94359
2022-11-17T08:54:03.986Z,94367
2022-11-17T08:55:03.963Z,94367
2022-11-17T08:56:03.932Z,94372
2022-11-17T08:57:04.112Z,94370
2022-11-17T08:58:03.966Z,94370
2022-11-17T08:59:03.978Z,94369
2022-11-17T09:00:03.971Z,94366
2022-11-17T09:01:05.321Z,94367
2022-11-17T09:02:04.016Z,94377
2022-11-17T09:03:03.984Z,94377
2022-11-17T09:04:03.972Z,94376
2022-11-17T09:05:03.981Z,94376
2022-11-17T09:06:03.993Z,94376
2022-11-17T09:07:04.051Z,94375
2022-11-17T09:08:29.825Z,94370
2022-11-17T09:09:04.580Z,94370
2022-11-17T09:10:04.008Z,94372
2022-11-17T09:11:03.996Z,94373
2022-11-17T09:12:04.084Z,94374
2022-11-17T09:13:04.028Z,94376
2022-11-17T09:14:04.058Z,94376
2022-11-17T09:15:03.975Z,94378
2022-11-17T09:16:04.028Z,94380
2022-11-17T09:17:04.015Z,94388
2022-11-17T09:18:04.028Z,94388
2022-11-17T09:19:04.007Z,94384
2022-11-17T09:20:04.044Z,94395
2022-11-17T09:21:04.009Z,94404
2022-11-17T09:22:04.053Z,94393
2022-11-17T09:23:04.030Z,94397
2022-11-17T09:24:04.091Z,94406
2022-11-17T09:25:07.573Z,94396
2022-11-17T09:26:04.052Z,94403
2022-11-17T09:27:04.061Z,94401
2022-11-17T09:28:04.071Z,94404
2022-11-17T09:29:04.038Z,94399
2022-11-17T09:30:04.044Z,94400
2022-11-17T09:31:04.111Z,94400
2022-11-17T09:32:04.087Z,94407
2022-11-17T09:33:04.031Z,94407
2022-11-17T09:34:05.858Z,94400
2022-11-17T09:35:04.032Z,94403
2022-11-17T09:36:04.055Z,94396
2022-11-17T09:37:04.060Z,94400
2022-11-17T09:38:04.016Z,94400
2022-11-17T09:39:04.098Z,94395
2022-11-17T09:40:04.032Z,94387
2022-11-17T09:41:04.055Z,94387
2022-11-17T09:42:04.107Z,94393
2022-11-17T09:43:04.054Z,94393
2022-11-17T09:44:04.101Z,94401
2022-11-17T09:45:04.092Z,94400
2022-11-17T09:46:07.465Z,94406
2022-11-17T09:47:04.134Z,94407
2022-11-17T09:48:33.449Z,94407
2022-11-17T09:49:04.094Z,94413
2022-11-17T09:50:04.106Z,94412
2022-11-17T09:51:04.098Z,94412
2022-11-17T09:52:04.148Z,94417
2022-11-17T09:53:04.123Z,94416
2022-11-17T09:54:04.095Z,94419
2022-11-17T09:55:04.125Z,94420
2022-11-17T09:56:04.122Z,94420
2022-11-17T09:57:04.155Z,94420
2022-11-17T09:59:04.131Z,94425
2022-11-17T10:00:04.124Z,94421
2022-11-17T10:01:04.126Z,94421
2022-11-17T10:02:04.145Z,94427
2022-11-17T10:03:04.104Z,94427
2022-11-17T10:04:04.123Z,94432
2022-11-17T10:05:04.158Z,94428
2022-11-17T10:08:04.103Z,94432
2022-11-17T10:09:04.104Z,94432
2022-11-17T10:10:04.181Z,94429
2022-11-17T10:11:04.174Z,94423
2022-11-17T10:12:04.150Z,94424
2022-11-17T10:13:04.303Z,94421
2022-11-17T10:14:04.163Z,94423
2022-11-17T10:15:04.167Z,94427
2022-11-17T10:16:04.183Z,94419
2022-11-17T10:17:04.206Z,94419
2022-11-17T10:18:04.155Z,94426
2022-11-17T10:19:04.188Z,94416
2022-11-17T10:20:04.168Z,94403
2022-11-17T10:21:04.173Z,94402
2022-11-17T10:22:04.197Z,94400
2022-11-17T10:23:04.141Z,94412
2022-11-17T10:24:04.183Z,94404
2022-11-17T10:25:04.225Z,94402
2022-11-17T10:26:04.207Z,94395
2022-11-17T10:27:04.201Z,94388
2022-11-17T10:28:04.194Z,94402
2022-11-17T10:29:08.547Z,94403
2022-11-17T10:30:04.241Z,94414
2022-11-17T10:31:04.186Z,94406
2022-11-17T10:32:04.226Z,94407
2022-11-17T10:33:04.191Z,94408
2022-11-17T10:34:04.166Z,94408
2022-11-17T10:35:04.231Z,94403
2022-11-17T10:36:04.234Z,94406
2022-11-17T10:37:04.237Z,94408
2022-11-17T10:38:04.226Z,94398
2022-11-17T10:39:04.235Z,94398
2022-11-17T10:40:04.239Z,94401
2022-11-17T10:41:04.233Z,94394
2022-11-17T10:42:04.226Z,94394
2022-11-17T10:43:04.242Z,94402
2022-11-17T10:44:04.226Z,94402
2022-11-17T10:45:04.305Z,94404
2022-11-17T10:46:04.256Z,94421
2022-11-17T10:47:04.338Z,94407
2022-11-17T10:48:04.254Z,94409
2022-11-17T10:49:04.241Z,94398
2022-11-17T10:51:04.233Z,94402
2022-11-17T10:52:04.262Z,94399
2022-11-17T10:53:06.623Z,94404
2022-11-17T10:54:04.229Z,94407
2022-11-17T10:55:04.269Z,94404
2022-11-17T10:56:04.240Z,94416
2022-11-17T10:57:04.237Z,94410
2022-11-17T10:59:04.271Z,94404
2022-11-17T11:00:04.286Z,94411
2022-11-17T11:01:04.296Z,94411
2022-11-17T11:02:04.287Z,94419
2022-11-17T11:03:04.327Z,94414
2022-11-17T11:04:04.265Z,94415
2022-11-17T11:05:04.263Z,94393
2022-11-17T11:06:04.272Z,94407
2022-11-17T11:07:04.330Z,94407
2022-11-17T11:08:04.251Z,94397
2022-11-17T11:09:04.262Z,94398
2022-11-17T11:10:04.280Z,94397
2022-11-17T11:11:04.312Z,94399
2022-11-17T11:12:04.306Z,94405
2022-11-17T11:13:04.359Z,94400
2022-11-17T11:14:04.297Z,94400
2022-11-17T11:15:04.327Z,94392
2022-11-17T11:16:04.357Z,94393
2022-11-17T11:17:04.279Z,94402
2022-11-17T11:18:04.328Z,94394
2022-11-17T11:19:04.272Z,94394
2022-11-17T11:20:04.287Z,94391
2022-11-17T11:21:04.341Z,94392
2022-11-17T11:22:04.472Z,94392
2022-11-17T11:23:04.338Z,94398
2022-11-17T11:24:04.297Z,94402
2022-11-17T11:25:04.343Z,94392
2022-11-17T11:27:04.309Z,94391
2022-11-17T11:28:04.380Z,94392
2022-11-17T11:29:04.344Z,94392
2022-11-17T11:30:04.323Z,94383
2022-11-17T11:31:04.386Z,94385
2022-11-17T11:32:04.325Z,94378
2022-11-17T11:33:04.365Z,94383
2022-11-17T11:34:04.380Z,94379
2022-11-17T11:35:04.341Z,94390
2022-11-17T11:36:04.395Z,94387
2022-11-17T11:37:04.320Z,94387
2022-11-17T11:38:04.365Z,94386
2022-11-17T11:39:04.370Z,94386
2022-11-17T11:40:04.364Z,94390
2022-11-17T11:41:04.546Z,94389
2022-11-17T11:42:07.993Z,94388
2022-11-17T11:43:04.332Z,94388
2022-11-17T11:44:04.344Z,94389
2022-11-17T11:45:04.354Z,94385
2022-11-17T11:46:04.402Z,94386
2022-11-17T11:47:04.395Z,94388
2022-11-17T11:48:04.393Z,94388
2022-11-17T11:49:04.395Z,94383
2022-11-17T11:50:04.378Z,94383
2022-11-17T11:51:04.407Z,94378
2022-11-17T11:52:04.418Z,94378
2022-11-17T11:53:04.431Z,94373
2022-11-17T11:54:04.452Z,94372
2022-11-17T11:55:04.420Z,94372
2022-11-17T11:56:04.454Z,94380
2022-11-17T11:57:04.379Z,94380
2022-11-17T11:59:04.431Z,94382
2022-11-17T12:00:05.094Z,94382
2022-11-17T12:01:04.432Z,94378
2022-11-17T12:02:04.481Z,94375
2022-11-17T12:03:04.481Z,94374
2022-11-17T12:04:04.394Z,94374
2022-11-17T12:05:04.448Z,94376
2022-11-17T12:06:04.434Z,94379
2022-11-17T12:07:04.549Z,94376
2022-11-17T12:08:10.200Z,94376
2022-11-17T12:09:04.486Z,94384
2022-11-17T12:10:04.409Z,94375
2022-11-17T12:11:04.447Z,94375
2022-11-17T12:12:04.489Z,94388
2022-11-17T12:13:04.456Z,94377
2022-11-17T12:14:04.476Z,94378
2022-11-17T12:15:04.462Z,94380
2022-11-17T12:16:04.464Z,94377
2022-11-17T12:17:04.471Z,94378
2022-11-17T12:18:04.484Z,94380
2022-11-17T12:19:04.486Z,94372
2022-11-17T12:20:10.435Z,94378
2022-11-17T12:21:04.451Z,94378
2022-11-17T12:22:04.526Z,94378
2022-11-17T12:23:04.455Z,94376
2022-11-17T12:25:04.505Z,94377
2022-11-17T12:26:04.448Z,94380
2022-11-17T12:27:04.498Z,94377
2022-11-17T12:28:04.496Z,94374
2022-11-17T12:29:04.614Z,94372
2022-11-17T12:30:04.510Z,94372
2022-11-17T12:31:09.754Z,94383
2022-11-17T12:32:04.526Z,94372
2022-11-17T12:33:04.511Z,94382
2022-11-17T12:34:04.475Z,94382
2022-11-17T12:35:04.504Z,94384
2022-11-17T12:36:04.512Z,94384
2022-11-17T12:38:04.526Z,94375
2022-11-17T12:39:04.494Z,94379
2022-11-17T12:40:04.545Z,94378
2022-11-17T12:41:04.490Z,94378
2022-11-17T12:42:04.580Z,94385
2022-11-17T12:43:04.539Z,94388
2022-11-17T12:44:04.565Z,94388
2022-11-17T12:45:04.545Z,94390
2022-11-17T12:46:04.531Z,94390
2022-11-17T12:47:04.508Z,94392
2022-11-17T12:48:32.245Z,94379
2022-11-17T12:49:04.588Z,94381
2022-11-17T12:50:04.521Z,94381
2022-11-17T12:51:05.178Z,94386
2022-11-17T12:52:04.568Z,94380
2022-11-17T12:54:04.553Z,94377
2022-11-17T12:55:04.519Z,94377
2022-11-17T12:56:04.818Z,94388
2022-11-17T12:57:04.618Z,94375
2022-11-17T12:58:09.183Z,94371
2022-11-17T13:00:04.527Z,94374
2022-11-17T13:01:04.593Z,94374
2022-11-17T13:02:04.600Z,94369
2022-11-17T13:03:04.645Z,94369
2022-11-17T13:04:04.601Z,94374
2022-11-17T13:05:04.616Z,94368
2022-11-17T13:06:28.318Z,94369
2022-11-17T13:07:04.672Z,94356
2022-11-17T13:08:04.610Z,94359
2022-11-17T13:09:04.596Z,94369
2022-11-17T13:10:04.628Z,94365
2022-11-17T13:11:04.601Z,94365
2022-11-17T13:12:04.591Z,94365
2022-11-17T13:13:04.572Z,94365
2022-11-17T13:14:04.572Z,94362
2022-11-17T13:15:04.620Z,94362
2022-11-17T13:16:04.580Z,94357
2022-11-17T13:17:04.628Z,94358
2022-11-17T13:18:04.583Z,94358
2022-11-17T13:19:04.597Z,94350
2022-11-17T13:20:04.675Z,94357
2022-11-17T13:22:04.592Z,94352
2022-11-17T13:25:04.667Z,94340
2022-11-17T13:26:04.649Z,94340
2022-11-17T13:27:04.649Z,94338
2022-11-17T13:28:05.381Z,94342
2022-11-17T13:29:04.686Z,94339
2022-11-17T13:30:04.639Z,94337
2022-11-17T13:31:04.663Z,94336
2022-11-17T13:32:04.644Z,94333
2022-11-17T13:33:04.675Z,94324
2022-11-17T13:34:04.660Z,94324
2022-11-17T13:35:04.681Z,94328
2022-11-17T13:36:04.691Z,94329
2022-11-17T13:37:04.701Z,94330
2022-11-17T13:38:04.684Z,94334
2022-11-17T13:39:04.683Z,94334
2022-11-17T13:40:04.699Z,94340
2022-11-17T13:41:04.679Z,94340
2022-11-17T13:42:04.693Z,94339
2022-11-17T13:43:04.701Z,94351
2022-11-17T13:44:04.694Z,94353
2022-11-17T13:45:04.701Z,94349
2022-11-17T13:46:04.688Z,94350